createdAt,value
2022-09-20T00:00:18.150Z,647
2022-09-20T00:02:17.951Z,681
2022-09-20T00:04:18.130Z,667
2022-09-20T00:06:17.834Z,639
2022-09-20T00:08:17.680Z,670
2022-09-20T00:10:17.489Z,783
2022-09-20T00:12:17.698Z,731
2022-09-20T00:14:17.582Z,650
2022-09-20T00:16:17.578Z,681
2022-09-20T00:18:17.598Z,663
2022-09-20T00:20:18.332Z,632
2022-09-20T00:22:18.164Z,660
2022-09-20T00:24:17.488Z,614
2022-09-20T00:26:18.244Z,671
2022-09-20T00:28:18.206Z,605
2022-09-20T00:30:17.957Z,655
2022-09-20T00:32:17.757Z,665
2022-09-20T00:34:17.887Z,604
2022-09-20T00:36:17.868Z,673
2022-09-20T00:38:17.798Z,693
2022-09-20T00:40:17.690Z,575
2022-09-20T00:42:17.466Z,673
2022-09-20T00:44:18.184Z,552
2022-09-20T00:46:18.094Z,599
2022-09-20T00:48:18.047Z,666
2022-09-20T00:50:17.802Z,647
2022-09-20T00:52:17.568Z,648
2022-09-20T00:54:20.257Z,549
2022-09-20T00:56:18.379Z,637
2022-09-20T00:58:18.156Z,607
2022-09-20T01:00:18.322Z,588
2022-09-20T01:02:18.187Z,590
2022-09-20T01:04:18.157Z,557
2022-09-20T01:06:18.060Z,542
2022-09-20T01:08:17.750Z,585
2022-09-20T01:10:17.609Z,550
2022-09-20T01:12:17.743Z,583
2022-09-20T01:14:18.006Z,565
2022-09-20T01:16:17.859Z,505
2022-09-20T01:18:18.044Z,573
2022-09-20T01:20:17.813Z,548
2022-09-20T01:22:17.661Z,625
2022-09-20T01:24:17.466Z,631
2022-09-20T01:26:18.314Z,576
2022-09-20T01:28:18.145Z,574
2022-09-20T01:30:17.946Z,495
2022-09-20T01:32:17.759Z,608
2022-09-20T01:34:18.142Z,547
2022-09-20T01:36:18.180Z,561
2022-09-20T01:38:17.976Z,542
2022-09-20T01:40:17.819Z,534
2022-09-20T01:42:17.723Z,621
2022-09-20T01:44:17.521Z,593
2022-09-20T01:46:17.967Z,590
2022-09-20T01:48:17.862Z,566
2022-09-20T01:50:17.679Z,502
2022-09-20T01:52:17.488Z,604
2022-09-20T01:54:17.515Z,593
2022-09-20T01:56:18.338Z,578
2022-09-20T01:58:18.325Z,555
2022-09-20T02:00:18.197Z,609
2022-09-20T02:02:18.120Z,604
2022-09-20T02:04:17.945Z,593
2022-09-20T02:06:17.758Z,617
2022-09-20T02:08:17.872Z,516
2022-09-20T02:10:17.672Z,647
2022-09-20T02:12:17.467Z,643
2022-09-20T02:14:17.857Z,547
2022-09-20T02:16:17.797Z,635
2022-09-20T02:18:18.338Z,577
2022-09-20T02:20:18.134Z,618
2022-09-20T02:22:17.933Z,654
2022-09-20T02:24:18.075Z,535
2022-09-20T02:26:17.915Z,548
2022-09-20T02:28:17.807Z,590
2022-09-20T02:30:17.757Z,664
2022-09-20T02:32:17.815Z,624
2022-09-20T02:34:17.908Z,656
2022-09-20T02:36:17.748Z,590
2022-09-20T02:38:17.608Z,656
2022-09-20T02:40:18.428Z,623
2022-09-20T02:42:18.278Z,553
2022-09-20T02:44:18.149Z,573
2022-09-20T02:46:17.986Z,620
2022-09-20T02:48:17.768Z,577
2022-09-20T02:50:17.994Z,648
2022-09-20T02:52:17.876Z,606
2022-09-20T02:54:17.723Z,584
2022-09-20T02:56:17.663Z,531
2022-09-20T02:58:17.938Z,589
2022-09-20T03:00:17.862Z,641
2022-09-20T03:02:17.766Z,551
2022-09-20T03:04:17.879Z,604
2022-09-20T03:06:17.880Z,634
2022-09-20T03:08:18.398Z,563
2022-09-20T03:10:18.169Z,603
2022-09-20T03:12:17.917Z,567
2022-09-20T03:14:18.212Z,617
2022-09-20T03:16:18.145Z,598
2022-09-20T03:18:18.227Z,641
2022-09-20T03:20:18.202Z,647
2022-09-20T03:22:17.381Z,631
2022-09-20T03:24:18.352Z,654
2022-09-20T03:26:18.196Z,606
2022-09-20T03:28:17.460Z,652
2022-09-20T03:30:18.282Z,552
2022-09-20T03:32:18.129Z,619
2022-09-20T03:34:17.951Z,556
2022-09-20T03:36:17.780Z,615
2022-09-20T03:38:17.796Z,648
2022-09-20T03:40:17.841Z,623
2022-09-20T03:42:17.762Z,640
2022-09-20T03:44:17.617Z,688
2022-09-20T03:46:17.844Z,695
2022-09-20T03:48:17.869Z,662
2022-09-20T03:50:17.700Z,537
2022-09-20T03:52:17.519Z,717
2022-09-20T03:54:18.279Z,641
2022-09-20T03:56:17.650Z,676
2022-09-20T03:58:17.482Z,688
2022-09-20T04:00:17.688Z,669
2022-09-20T04:02:17.554Z,714
2022-09-20T04:04:18.608Z,612
2022-09-20T04:06:17.388Z,686
2022-09-20T04:08:18.254Z,650
2022-09-20T04:10:17.588Z,700
2022-09-20T04:12:18.053Z,655
2022-09-20T04:14:17.897Z,657
2022-09-20T04:16:17.768Z,642
2022-09-20T04:18:17.828Z,691
2022-09-20T04:20:17.965Z,737
2022-09-20T04:22:17.678Z,711
2022-09-20T04:24:17.527Z,610
2022-09-20T04:26:17.329Z,720
2022-09-20T04:28:18.343Z,682
2022-09-20T04:30:18.205Z,635
2022-09-20T04:32:18.081Z,657
2022-09-20T04:34:17.883Z,664
2022-09-20T04:36:18.036Z,685
2022-09-20T04:38:17.846Z,669
2022-09-20T04:40:17.694Z,638
2022-09-20T04:42:18.148Z,676
2022-09-20T04:44:18.051Z,646
2022-09-20T04:46:17.961Z,654
2022-09-20T04:48:17.762Z,633
2022-09-20T04:50:17.634Z,769
2022-09-20T04:52:17.470Z,658
2022-09-20T04:54:17.836Z,593
2022-09-20T04:56:17.950Z,667
2022-09-20T04:58:17.685Z,630
2022-09-20T05:00:17.590Z,714
2022-09-20T05:02:17.465Z,742
2022-09-20T05:04:17.762Z,609
2022-09-20T05:06:17.930Z,679
2022-09-20T05:08:17.856Z,660
2022-09-20T05:10:17.671Z,695
2022-09-20T05:12:17.531Z,698
2022-09-20T05:14:18.423Z,692
2022-09-20T05:16:17.626Z,786
2022-09-20T05:18:17.743Z,699
2022-09-20T05:20:17.543Z,682
2022-09-20T05:22:17.874Z,687
2022-09-20T05:24:17.789Z,614
2022-09-20T05:26:17.582Z,817
2022-09-20T05:28:17.404Z,760
2022-09-20T05:30:18.193Z,612
2022-09-20T05:32:17.973Z,677
2022-09-20T05:34:17.712Z,679
2022-09-20T05:36:17.828Z,681
2022-09-20T05:38:17.679Z,693
2022-09-20T05:40:17.491Z,711
2022-09-20T05:42:18.285Z,638
2022-09-20T05:44:17.692Z,713
2022-09-20T05:46:17.838Z,737
2022-09-20T05:48:17.703Z,688
2022-09-20T05:50:17.467Z,683
2022-09-20T05:52:18.255Z,746
2022-09-20T05:54:18.191Z,686
2022-09-20T05:56:17.998Z,661
2022-09-20T05:58:17.933Z,752
2022-09-20T06:00:17.812Z,738
2022-09-20T06:02:17.719Z,675
2022-09-20T06:04:17.583Z,717
2022-09-20T06:06:18.208Z,640
2022-09-20T06:08:18.030Z,733
2022-09-20T06:10:18.018Z,729
2022-09-20T06:12:17.885Z,748
2022-09-20T06:14:17.805Z,751
2022-09-20T06:16:17.819Z,620
2022-09-20T06:18:17.490Z,754
2022-09-20T06:20:18.327Z,774
2022-09-20T06:22:17.540Z,672
2022-09-20T06:24:17.770Z,725
2022-09-20T06:26:17.619Z,672
2022-09-20T06:28:17.731Z,768
2022-09-20T06:30:17.600Z,760
2022-09-20T06:32:17.405Z,712
2022-09-20T06:34:17.768Z,632
2022-09-20T06:36:17.469Z,550
2022-09-20T06:38:17.623Z,475
2022-09-20T06:40:17.602Z,624
2022-09-20T06:42:17.528Z,618
2022-09-20T06:44:17.890Z,680
2022-09-20T06:46:17.766Z,741
2022-09-20T06:48:17.579Z,559
2022-09-20T06:50:17.833Z,680
2022-09-20T06:52:17.841Z,725
2022-09-20T06:54:17.602Z,668
2022-09-20T06:56:17.396Z,656
2022-09-20T06:58:18.229Z,756
2022-09-20T07:00:18.002Z,718
2022-09-20T07:02:17.803Z,691
2022-09-20T07:04:17.765Z,778
2022-09-20T07:06:17.615Z,767
2022-09-20T07:08:17.382Z,681
2022-09-20T07:10:18.219Z,716
2022-09-20T07:12:18.206Z,774
2022-09-20T07:14:18.159Z,731
2022-09-20T07:16:18.397Z,725
2022-09-20T07:18:18.433Z,799
2022-09-20T07:20:21.329Z,731
2022-09-20T07:22:18.268Z,810
2022-09-20T07:24:18.235Z,757
2022-09-20T07:26:18.108Z,758
2022-09-20T07:28:17.979Z,743
2022-09-20T07:30:18.194Z,841
2022-09-20T07:32:18.044Z,775
2022-09-20T07:34:17.883Z,722
2022-09-20T07:36:17.847Z,776
2022-09-20T07:38:17.646Z,832
2022-09-20T07:40:18.140Z,804
2022-09-20T07:42:18.012Z,811
2022-09-20T07:44:17.883Z,783
2022-09-20T07:46:17.719Z,750
2022-09-20T07:48:17.784Z,798
2022-09-20T07:50:17.671Z,790
2022-09-20T07:52:17.499Z,800
2022-09-20T07:54:18.398Z,841
2022-09-20T07:56:17.721Z,708
2022-09-20T07:58:17.650Z,868
2022-09-20T08:00:17.474Z,855
2022-09-20T08:02:18.355Z,893
2022-09-20T08:04:18.157Z,892
2022-09-20T08:06:18.105Z,800
2022-09-20T08:08:17.388Z,861
2022-09-20T08:10:18.180Z,879
2022-09-20T08:14:17.997Z,731
2022-09-20T08:16:17.347Z,792
2022-09-20T08:18:17.470Z,840
2022-09-20T08:20:18.305Z,802
2022-09-20T08:22:17.557Z,810
2022-09-20T08:24:18.382Z,814
2022-09-20T08:26:18.301Z,757
2022-09-20T08:28:18.040Z,774
2022-09-20T08:30:17.363Z,772
2022-09-20T08:32:18.309Z,829
2022-09-20T08:34:18.091Z,846
2022-09-20T08:36:17.928Z,730
2022-09-20T08:40:17.800Z,805
2022-09-20T08:42:17.715Z,786
2022-09-20T08:44:17.973Z,776
2022-09-20T08:46:23.172Z,837
2022-09-20T08:48:18.393Z,798
2022-09-20T08:50:18.249Z,772
2022-09-20T08:52:18.122Z,861
2022-09-20T08:54:17.900Z,831
2022-09-20T08:56:18.181Z,742
2022-09-20T08:58:17.963Z,788
2022-09-20T09:00:17.719Z,687
2022-09-20T09:02:17.669Z,754
2022-09-20T09:04:17.994Z,719
2022-09-20T09:06:18.609Z,660
2022-09-20T09:08:17.436Z,772
2022-09-20T09:10:18.352Z,758
2022-09-20T09:12:17.641Z,766
2022-09-20T09:14:17.478Z,829
2022-09-20T09:16:22.544Z,813
2022-09-20T09:18:17.888Z,784
2022-09-20T09:20:17.719Z,764
2022-09-20T09:22:17.737Z,698
2022-09-20T09:24:17.965Z,729
2022-09-20T09:26:17.797Z,806
2022-09-20T09:28:17.626Z,743
2022-09-20T09:30:17.966Z,661
2022-09-20T09:32:17.573Z,784
2022-09-20T09:34:17.406Z,782
2022-09-20T09:36:18.273Z,732
2022-09-20T09:38:17.952Z,612
2022-09-20T09:40:18.364Z,712
2022-09-20T09:42:18.278Z,616
2022-09-20T09:44:18.088Z,563
2022-09-20T09:46:18.193Z,572
2022-09-20T09:48:18.110Z,472
2022-09-20T09:50:17.906Z,613
2022-09-20T09:52:17.643Z,576
2022-09-20T09:54:17.589Z,454
2022-09-20T09:56:17.537Z,450
2022-09-20T09:58:17.462Z,507
2022-09-20T10:00:21.734Z,626
2022-09-20T10:02:18.170Z,546
2022-09-20T10:04:17.926Z,586
2022-09-20T10:06:17.832Z,556
2022-09-20T10:08:17.625Z,580
2022-09-20T10:10:17.485Z,593
2022-09-20T10:12:18.337Z,596
2022-09-20T10:14:18.144Z,580
2022-09-20T10:16:18.383Z,618
2022-09-20T10:18:18.371Z,542
2022-09-20T10:20:18.279Z,608
2022-09-20T10:22:18.297Z,467
2022-09-20T10:24:17.419Z,562
2022-09-20T10:26:18.218Z,573
2022-09-20T10:28:18.042Z,557
2022-09-20T10:30:17.999Z,580
2022-09-20T10:32:18.092Z,497
2022-09-20T10:34:17.973Z,599
2022-09-20T10:36:18.033Z,532
2022-09-20T10:38:18.499Z,489
2022-09-20T10:40:17.482Z,509
2022-09-20T10:42:17.763Z,521
2022-09-20T10:44:17.842Z,593
2022-09-20T10:46:33.629Z,477
2022-09-20T10:48:17.502Z,607
2022-09-20T10:50:18.367Z,545
2022-09-20T10:52:17.864Z,523
2022-09-20T10:54:17.913Z,486
2022-09-20T10:56:17.811Z,501
2022-09-20T10:58:17.585Z,537
2022-09-20T11:00:17.406Z,505
2022-09-20T11:02:18.273Z,513
2022-09-20T11:04:17.493Z,468
2022-09-20T11:06:18.330Z,535
2022-09-20T11:08:18.186Z,625
2022-09-20T11:10:17.426Z,533
2022-09-20T11:12:17.791Z,565
2022-09-20T11:14:17.623Z,584
2022-09-20T11:16:17.411Z,599
2022-09-20T11:18:17.362Z,549
2022-09-20T11:20:17.642Z,522
2022-09-20T11:22:17.439Z,585
2022-09-20T11:24:18.417Z,613
2022-09-20T11:26:17.586Z,598
2022-09-20T11:28:18.351Z,562
2022-09-20T11:30:18.121Z,553
2022-09-20T11:32:18.066Z,585
2022-09-20T11:34:18.134Z,642
2022-09-20T11:36:17.955Z,534
2022-09-20T11:38:17.769Z,621
2022-09-20T11:40:17.634Z,598
2022-09-20T11:42:17.667Z,623
2022-09-20T11:44:17.466Z,638
2022-09-20T11:46:18.290Z,578
2022-09-20T11:48:18.140Z,595
2022-09-20T11:50:17.982Z,629
2022-09-20T11:52:17.797Z,664
2022-09-20T11:54:17.798Z,628
2022-09-20T11:56:17.639Z,637
2022-09-20T11:58:17.462Z,673
2022-09-20T12:00:18.188Z,647
2022-09-20T12:02:18.114Z,619
2022-09-20T12:04:32.131Z,588
2022-09-20T12:06:17.657Z,601
2022-09-20T12:08:17.794Z,653
2022-09-20T12:10:17.814Z,579
2022-09-20T12:12:17.617Z,677
2022-09-20T12:14:18.034Z,626
2022-09-20T12:16:18.271Z,647
2022-09-20T12:18:18.178Z,594
2022-09-20T12:20:19.253Z,618
2022-09-20T12:22:18.320Z,667
2022-09-20T12:24:18.069Z,662
2022-09-20T12:26:17.970Z,670
2022-09-20T12:28:17.849Z,695
2022-09-20T12:30:17.616Z,619
2022-09-20T12:32:17.458Z,653
2022-09-20T12:34:18.329Z,656
2022-09-20T12:36:18.342Z,633
2022-09-20T12:38:17.750Z,612
2022-09-20T12:40:17.644Z,650
2022-09-20T12:42:17.458Z,656
2022-09-20T12:44:18.261Z,664
2022-09-20T12:46:18.186Z,643
2022-09-20T12:48:18.015Z,684
2022-09-20T12:50:17.962Z,649
2022-09-20T12:52:18.256Z,678
2022-09-20T12:54:18.036Z,753
2022-09-20T12:56:17.711Z,696
2022-09-20T12:58:17.801Z,693
2022-09-20T13:00:18.036Z,674
2022-09-20T13:02:17.878Z,587
2022-09-20T13:04:17.715Z,592
2022-09-20T13:06:17.492Z,682
2022-09-20T13:08:18.305Z,556
2022-09-20T13:10:18.060Z,583
2022-09-20T13:12:17.835Z,566
2022-09-20T13:14:17.871Z,668
2022-09-20T13:16:17.631Z,568
2022-09-20T13:18:17.685Z,659
2022-09-20T13:20:17.468Z,600
2022-09-20T13:22:18.323Z,620
2022-09-20T13:24:18.328Z,636
2022-09-20T13:26:18.152Z,625
2022-09-20T13:28:21.040Z,608
2022-09-20T13:30:17.414Z,645
2022-09-20T13:32:17.970Z,647
2022-09-20T13:34:17.781Z,621
2022-09-20T13:36:17.663Z,667
2022-09-20T13:38:18.026Z,566
2022-09-20T13:40:17.806Z,588
2022-09-20T13:42:17.705Z,556
2022-09-20T13:44:17.654Z,688
2022-09-20T13:46:17.451Z,523
2022-09-20T13:48:17.733Z,557
2022-09-20T13:50:17.509Z,560
2022-09-20T13:52:18.218Z,623
2022-09-20T13:54:17.981Z,568
2022-09-20T13:56:17.741Z,512
2022-09-20T13:58:17.593Z,590
2022-09-20T14:00:17.854Z,577
2022-09-20T14:02:17.711Z,555
2022-09-20T14:04:17.518Z,569
2022-09-20T14:06:18.388Z,541
2022-09-20T14:08:18.194Z,667
2022-09-20T14:10:17.953Z,689
2022-09-20T14:12:18.306Z,627
2022-09-20T14:14:21.972Z,652
2022-09-20T14:16:18.011Z,614
2022-09-20T14:18:17.945Z,642
2022-09-20T14:20:17.755Z,624
2022-09-20T14:22:17.522Z,471
2022-09-20T14:24:18.364Z,606
2022-09-20T14:26:17.561Z,635
2022-09-20T14:28:17.452Z,656
2022-09-20T14:30:18.257Z,650
2022-09-20T14:32:18.121Z,724
2022-09-20T14:34:17.947Z,720
2022-09-20T14:36:18.133Z,707
2022-09-20T14:38:18.414Z,697
2022-09-20T14:40:18.240Z,686
2022-09-20T14:42:18.158Z,651
2022-09-20T14:44:17.966Z,738
2022-09-20T14:46:17.636Z,762
2022-09-20T14:48:17.477Z,785
2022-09-20T14:50:18.353Z,795
2022-09-20T14:52:18.167Z,782
2022-09-20T14:54:17.959Z,784
2022-09-20T14:56:17.774Z,676
2022-09-20T14:58:17.551Z,744
2022-09-20T15:00:18.295Z,687
2022-09-20T15:02:18.245Z,776
2022-09-20T15:04:18.113Z,702
2022-09-20T15:06:17.892Z,795
2022-09-20T15:08:17.718Z,790
2022-09-20T15:10:17.438Z,807
2022-09-20T15:12:18.388Z,749
2022-09-20T15:14:17.466Z,769
2022-09-20T15:16:17.698Z,837
2022-09-20T15:18:17.706Z,799
2022-09-20T15:20:20.668Z,811
2022-09-20T15:22:18.068Z,824
2022-09-20T15:24:17.866Z,765
2022-09-20T15:26:17.660Z,753
2022-09-20T15:28:17.639Z,826
2022-09-20T15:30:17.519Z,834
2022-09-20T15:32:18.387Z,732
2022-09-20T15:34:18.233Z,816
2022-09-20T15:36:18.030Z,736
2022-09-20T15:38:17.863Z,794
2022-09-20T15:40:18.393Z,790
2022-09-20T15:42:17.414Z,810
2022-09-20T15:44:18.335Z,880
2022-09-20T15:46:18.292Z,792
2022-09-20T15:48:18.210Z,860
2022-09-20T15:50:17.981Z,874
2022-09-20T15:52:17.903Z,795
2022-09-20T15:54:18.353Z,805
2022-09-20T15:56:18.254Z,857
2022-09-20T15:58:18.134Z,780
2022-09-20T16:00:17.921Z,851
2022-09-20T16:02:17.943Z,772
2022-09-20T16:04:17.755Z,840
2022-09-20T16:06:17.645Z,882
2022-09-20T16:08:17.722Z,879
2022-09-20T16:10:17.600Z,776
2022-09-20T16:12:17.522Z,850
2022-09-20T16:14:17.578Z,818
2022-09-20T16:16:17.508Z,878
2022-09-20T16:18:17.445Z,830
2022-09-20T16:20:18.294Z,914
2022-09-20T16:22:18.083Z,851
2022-09-20T16:24:17.859Z,910
2022-09-20T16:26:18.283Z,924
2022-09-20T16:28:18.120Z,902
2022-09-20T16:30:18.277Z,855
2022-09-20T16:32:17.980Z,931
2022-09-20T16:34:17.786Z,913
2022-09-20T16:36:17.594Z,833
2022-09-20T16:38:17.428Z,855
2022-09-20T16:40:18.295Z,856
2022-09-20T16:42:18.338Z,947
2022-09-20T16:44:17.335Z,863
2022-09-20T16:46:17.471Z,780
2022-09-20T16:48:18.243Z,786
2022-09-20T16:50:18.354Z,732
2022-09-20T16:52:18.221Z,762
2022-09-20T16:54:18.284Z,593
2022-09-20T16:56:19.146Z,649
2022-09-20T16:58:18.048Z,592
2022-09-20T17:00:17.896Z,533
2022-09-20T17:02:17.685Z,572
2022-09-20T17:04:17.912Z,0
2022-09-20T17:06:17.762Z,0
2022-09-20T17:08:17.978Z,0
2022-09-20T17:10:17.816Z,1550
2022-09-20T17:12:17.847Z,1317
2022-09-20T17:14:17.879Z,1125
2022-09-20T17:16:18.116Z,947
2022-09-20T17:18:18.111Z,966
2022-09-20T17:20:17.881Z,1011
2022-09-20T17:22:17.656Z,1097
2022-09-20T17:24:17.443Z,1107
2022-09-20T17:26:18.136Z,1105
2022-09-20T17:28:17.986Z,1170
2022-09-20T17:30:17.870Z,1159
2022-09-20T17:32:17.951Z,1104
2022-09-20T17:34:18.201Z,1016
2022-09-20T17:36:18.004Z,1139
2022-09-20T17:38:17.796Z,1083
2022-09-20T17:40:17.872Z,1163
2022-09-20T17:42:17.645Z,1193
2022-09-20T17:44:17.482Z,1165
2022-09-20T17:46:19.233Z,1087
2022-09-20T17:48:17.481Z,1196
2022-09-20T17:50:18.343Z,1220
2022-09-20T17:52:18.139Z,1204
2022-09-20T17:54:18.021Z,1172
2022-09-20T17:56:17.945Z,1216
2022-09-20T17:58:17.654Z,1212
2022-09-20T18:00:17.459Z,1136
2022-09-20T18:02:18.367Z,1101
2022-09-20T18:04:18.169Z,1233
2022-09-20T18:06:17.938Z,1134
2022-09-20T18:08:17.922Z,1239
2022-09-20T18:10:17.808Z,1245
2022-09-20T18:12:19.869Z,1171
2022-09-20T18:14:18.189Z,1274
2022-09-20T18:16:18.019Z,1201
2022-09-20T18:18:18.176Z,1240
2022-09-20T18:20:18.028Z,1197
2022-09-20T18:22:17.827Z,1195
2022-09-20T18:24:17.779Z,1167
2022-09-20T18:26:17.562Z,1189
2022-09-20T18:28:17.529Z,1165
2022-09-20T18:30:18.379Z,1129
2022-09-20T18:32:18.071Z,1154
2022-09-20T18:34:18.295Z,1200
2022-09-20T18:36:18.118Z,1201
2022-09-20T18:38:18.112Z,1242
2022-09-20T18:40:17.941Z,1264
2022-09-20T18:42:17.749Z,1240
2022-09-20T18:44:17.703Z,1253
2022-09-20T18:46:17.602Z,1236
2022-09-20T18:48:17.467Z,1380
2022-09-20T18:50:17.449Z,1192
2022-09-20T18:52:18.267Z,1211
2022-09-20T18:54:18.011Z,1218
2022-09-20T18:56:17.927Z,1340
2022-09-20T18:58:18.062Z,1242
2022-09-20T19:00:17.952Z,1251
2022-09-20T19:02:17.735Z,1329
2022-09-20T19:04:17.480Z,1332
2022-09-20T19:06:18.236Z,1464
2022-09-20T19:08:18.116Z,1368
2022-09-20T19:10:17.888Z,1386
2022-09-20T19:12:18.040Z,1192
2022-09-20T19:14:17.856Z,1434
2022-09-20T19:16:17.737Z,1429
2022-09-20T19:18:21.644Z,1409
2022-09-20T19:20:18.299Z,1395
2022-09-20T19:22:17.517Z,1330
2022-09-20T19:24:18.431Z,1058
2022-09-20T19:26:19.155Z,1181
2022-09-20T19:28:18.113Z,1262
2022-09-20T19:30:17.947Z,1329
2022-09-20T19:32:17.705Z,1156
2022-09-20T19:34:18.007Z,1389
2022-09-20T19:36:17.889Z,1343
2022-09-20T19:38:17.677Z,1389
2022-09-20T19:40:17.951Z,1393
2022-09-20T19:42:17.770Z,1359
2022-09-20T19:44:17.563Z,1269
2022-09-20T19:46:17.449Z,1226
2022-09-20T19:48:18.295Z,1030
2022-09-20T19:50:18.049Z,1391
2022-09-20T19:52:17.904Z,1334
2022-09-20T19:54:18.033Z,1256
2022-09-20T19:56:18.030Z,1258
2022-09-20T19:58:17.938Z,1120
2022-09-20T20:00:18.134Z,1238
2022-09-20T20:02:17.991Z,1414
2022-09-20T20:04:18.021Z,1263
2022-09-20T20:06:17.868Z,1051
2022-09-20T20:08:17.698Z,1180
2022-09-20T20:10:17.595Z,1279
2022-09-20T20:12:17.394Z,1272
2022-09-20T20:14:18.271Z,1256
2022-09-20T20:16:18.169Z,1223
2022-09-20T20:18:18.094Z,1296
2022-09-20T20:20:17.986Z,1224
2022-09-20T20:22:17.817Z,1394
2022-09-20T20:24:17.659Z,1241
2022-09-20T20:26:17.495Z,1108
2022-09-20T20:28:18.298Z,1316
2022-09-20T20:30:18.128Z,1253
2022-09-20T20:32:17.971Z,1257
2022-09-20T20:34:17.724Z,1208
2022-09-20T20:36:17.551Z,1151
2022-09-20T20:38:18.376Z,1412
2022-09-20T20:40:18.271Z,1375
2022-09-20T20:42:18.126Z,1004
2022-09-20T20:44:18.114Z,1396
2022-09-20T20:46:18.151Z,1332
2022-09-20T20:48:18.062Z,1322
2022-09-20T20:50:17.907Z,1012
2022-09-20T20:52:17.756Z,1311
2022-09-20T20:54:17.557Z,1317
2022-09-20T20:56:18.368Z,1263
2022-09-20T20:58:18.290Z,1314
2022-09-20T21:00:18.041Z,1383
2022-09-20T21:02:17.878Z,1348
2022-09-20T21:04:17.771Z,1405
2022-09-20T21:06:18.629Z,1344
2022-09-20T21:08:17.386Z,1235
2022-09-20T21:10:18.117Z,1443
2022-09-20T21:12:17.982Z,1160
2022-09-20T21:14:18.031Z,1426
2022-09-20T21:16:17.841Z,1291
2022-09-20T21:18:17.766Z,1402
2022-09-20T21:20:17.453Z,1121
2022-09-20T21:22:18.265Z,1387
2022-09-20T21:24:18.029Z,1339
2022-09-20T21:26:17.917Z,1450
2022-09-20T21:28:17.930Z,1264
2022-09-20T21:30:18.068Z,1252
2022-09-20T21:32:17.890Z,1370
2022-09-20T21:34:18.048Z,1248
2022-09-20T21:36:21.173Z,1273
2022-09-20T21:38:17.979Z,1272
2022-09-20T21:40:17.807Z,1385
2022-09-20T21:42:17.619Z,1329
2022-09-20T21:44:17.508Z,1236
2022-09-20T21:46:33.846Z,1320
2022-09-20T21:48:17.799Z,1281
2022-09-20T21:50:17.702Z,1389
2022-09-20T21:52:17.545Z,1335
2022-09-20T21:54:17.389Z,1363
2022-09-20T21:56:18.191Z,1416
2022-09-20T21:58:17.952Z,1355
2022-09-20T22:00:17.851Z,1287
2022-09-20T22:02:17.783Z,1420
2022-09-20T22:04:17.557Z,1165
2022-09-20T22:06:18.350Z,1562
2022-09-20T22:08:18.109Z,1376
2022-09-20T22:10:17.863Z,1370
2022-09-20T22:12:17.667Z,1427
2022-09-20T22:14:17.512Z,1289
2022-09-20T22:16:18.312Z,1142
2022-09-20T22:18:18.204Z,1403
2022-09-20T22:20:18.041Z,1359
2022-09-20T22:22:17.815Z,1262
2022-09-20T22:24:17.593Z,1194
2022-09-20T22:26:17.440Z,1204
2022-09-20T22:28:18.238Z,1278
2022-09-20T22:30:18.031Z,1405
2022-09-20T22:32:17.753Z,1233
2022-09-20T22:34:17.613Z,1349
2022-09-20T22:36:17.409Z,1374
2022-09-20T22:38:18.201Z,1337
2022-09-20T22:40:18.076Z,1347
2022-09-20T22:42:17.896Z,1420
2022-09-20T22:44:18.101Z,1343
2022-09-20T22:46:17.887Z,1379
2022-09-20T22:48:17.730Z,1320
2022-09-20T22:50:17.646Z,1246
2022-09-20T22:52:17.430Z,1376
2022-09-20T22:54:18.158Z,1322
2022-09-20T22:56:17.997Z,1303
2022-09-20T22:58:18.096Z,1096
2022-09-20T23:00:17.871Z,1261
2022-09-20T23:02:17.677Z,1292
2022-09-20T23:04:17.481Z,1275
2022-09-20T23:06:18.242Z,1359
2022-09-20T23:08:18.129Z,1157
2022-09-20T23:10:17.931Z,1040
2022-09-20T23:12:18.188Z,1198
2022-09-20T23:14:18.079Z,1268
2022-09-20T23:16:17.882Z,1187
2022-09-20T23:18:17.943Z,1136
2022-09-20T23:20:17.804Z,1116
2022-09-20T23:22:17.971Z,1230
2022-09-20T23:24:17.961Z,1292
2022-09-20T23:26:17.986Z,1267
2022-09-20T23:28:17.782Z,1278
2022-09-20T23:30:17.577Z,1354
2022-09-20T23:32:17.439Z,1192
2022-09-20T23:34:18.156Z,1060
2022-09-20T23:36:17.971Z,1097
2022-09-20T23:38:17.979Z,1324
2022-09-20T23:40:17.816Z,1214
2022-09-20T23:42:17.989Z,1266
2022-09-20T23:44:17.731Z,1152
2022-09-20T23:46:17.563Z,1182
2022-09-20T23:48:18.451Z,1132
2022-09-20T23:50:18.166Z,1167
2022-09-20T23:52:17.889Z,1263
2022-09-20T23:54:17.727Z,1178
2022-09-20T23:56:17.501Z,1153
2022-09-20T23:58:18.365Z,941
